Time;durP1;ratioP1;P1;durP2;ratioP2;P2;SDS_P1;SDS_P2;PMS_P1;PMS_P2;Temp;Humidity;BMP_temperature;BMP_pressure;BME280_temperature;BME280_humidity;BME280_pressure;Samples;Min_cycle;Max_cycle;Signal;HPM_P1;HPM_P2
2022/03/04 00:00:34;;;;;;;24.83;16.17;;;;;;;2.32;67.32;101470.66;5115403;28;20220;-69
2022/03/04 00:03:01;;;;;;;25.00;16.03;;;;;;;2.32;67.55;101469.81;5115001;28;20289;-69
2022/03/04 00:05:28;;;;;;;23.83;15.33;;;;;;;2.18;67.78;101472.31;5114978;28;20186;-69
2022/03/04 00:07:54;;;;;;;24.00;16.63;;;;;;;2.13;67.89;101471.41;5114990;28;20187;-69
2022/03/04 00:10:21;;;;;;;24.73;16.80;;;;;;;2.09;68.05;101475.72;5114812;28;20192;-69
2022/03/04 00:12:47;;;;;;;25.23;16.00;;;;;;;2.06;68.19;101475.69;5114836;28;20200;-69
2022/03/04 00:15:14;;;;;;;27.53;15.97;;;;;;;2.06;68.37;101480.00;5115358;28;20585;-69
2022/03/04 00:17:41;;;;;;;27.40;16.40;;;;;;;2.01;68.65;101477.41;5114518;28;20197;-69
2022/03/04 00:20:09;;;;;;;26.80;16.20;;;;;;;1.98;68.55;101479.09;5096463;28;20207;-69
2022/03/04 00:22:35;;;;;;;23.33;15.83;;;;;;;1.92;68.99;101483.34;5115216;28;20194;-69
2022/03/04 00:25:03;;;;;;;24.90;16.87;;;;;;;1.80;69.03;101495.34;5096649;28;20190;-68
2022/03/04 00:27:30;;;;;;;25.50;16.40;;;;;;;1.72;69.17;101491.84;5114843;28;20191;-68
2022/03/04 00:29:56;;;;;;;28.40;16.43;;;;;;;1.68;69.65;101492.66;5114592;28;20186;-68
2022/03/04 00:32:23;;;;;;;27.07;18.07;;;;;;;1.50;70.66;101491.66;5114466;28;20198;-69
2022/03/04 00:34:50;;;;;;;23.47;16.40;;;;;;;1.67;70.19;101494.38;5114983;28;20521;-68
2022/03/04 00:37:17;;;;;;;23.53;16.00;;;;;;;1.58;70.33;101496.91;5114680;28;20651;-68
2022/03/04 00:39:44;;;;;;;32.10;17.53;;;;;;;1.47;70.61;101511.41;5114539;28;20678;-68
2022/03/04 00:42:11;;;;;;;29.77;17.90;;;;;;;1.48;70.70;101514.00;5114261;28;20209;-68
2022/03/04 00:44:38;;;;;;;24.93;16.10;;;;;;;1.36;71.01;101513.91;5114527;28;20504;-68
2022/03/04 00:47:05;;;;;;;23.00;16.37;;;;;;;1.29;71.08;101518.16;5114259;28;20276;-68
2022/03/04 00:49:32;;;;;;;30.07;17.73;;;;;;;1.22;71.16;101513.78;5114156;28;20181;-68
2022/03/04 00:51:58;;;;;;;29.20;18.23;;;;;;;1.07;71.75;101509.34;5114667;28;20567;-68
2022/03/04 00:54:25;;;;;;;28.10;16.67;;;;;;;1.12;71.81;101504.19;5114133;28;20429;-68
2022/03/04 00:56:51;;;;;;;30.60;16.90;;;;;;;1.02;72.13;101515.28;5114347;28;20429;-68
2022/03/04 00:59:18;;;;;;;33.70;16.43;;;;;;;0.95;72.50;101519.50;5114388;28;20254;-68
2022/03/04 01:01:45;;;;;;;25.20;17.00;;;;;;;0.89;73.12;101519.44;5114445;28;20457;-68
2022/03/04 01:04:12;;;;;;;26.83;16.47;;;;;;;0.86;73.69;101518.50;5113953;28;20468;-68
2022/03/04 01:06:39;;;;;;;29.40;16.43;;;;;;;0.80;74.18;101520.19;5114216;28;20753;-68
2022/03/04 01:09:06;;;;;;;30.97;17.67;;;;;;;0.63;75.02;101518.25;5113884;28;20181;-69
2022/03/04 01:11:32;;;;;;;29.93;17.03;;;;;;;0.57;75.13;101508.72;5114327;28;20502;-68
2022/03/04 01:13:58;;;;;;;25.07;16.77;;;;;;;0.60;75.05;101511.38;5114153;28;20827;-68
2022/03/04 01:16:25;;;;;;;22.63;15.73;;;;;;;0.51;75.30;101506.09;5114014;28;20799;-68
2022/03/04 01:18:52;;;;;;;26.43;16.20;;;;;;;0.49;75.43;101507.78;5096604;28;20796;-68
2022/03/04 01:21:19;;;;;;;27.40;17.90;;;;;;;0.37;76.02;101507.63;5113661;28;20217;-68
2022/03/04 01:23:45;;;;;;;26.10;16.57;;;;;;;0.41;75.99;101509.38;5113768;28;20436;-68
2022/03/04 01:26:12;;;;;;;22.67;16.60;;;;;;;0.27;76.38;101512.66;5113964;28;20452;-68
2022/03/04 01:28:38;;;;;;;29.70;17.57;;;;;;;0.35;76.43;101517.03;5117688;28;20444;-68
2022/03/04 01:31:05;;;;;;;30.90;17.67;;;;;;;0.31;77.10;101512.72;5120443;28;20833;-68
2022/03/04 01:33:31;;;;;;;30.70;18.20;;;;;;;0.22;77.50;101514.31;5120451;28;20965;-68
2022/03/04 01:35:58;;;;;;;31.10;16.73;;;;;;;0.26;77.67;101508.34;5120705;28;20947;-68
2022/03/04 01:38:24;;;;;;;27.60;17.50;;;;;;;0.25;78.15;101511.75;5120432;28;20432;-68
2022/03/04 01:40:51;;;;;;;35.13;17.80;;;;;;;0.42;78.04;101511.97;5120279;28;20480;-68
2022/03/04 01:43:17;;;;;;;24.90;16.37;;;;;;;0.46;78.00;101505.19;5120410;28;20495;-68
2022/03/04 01:45:44;;;;;;;32.33;18.07;;;;;;;0.38;77.85;101493.91;5120641;28;20919;-68
2022/03/04 01:48:10;;;;;;;27.70;16.97;;;;;;;0.36;77.87;101499.06;5120364;28;20784;-68
2022/03/04 01:50:37;;;;;;;29.57;16.83;;;;;;;0.35;78.26;101499.88;5120295;28;20438;-68
2022/03/04 01:53:04;;;;;;;30.63;17.77;;;;;;;0.37;78.39;101502.50;5120301;28;20429;-68
2022/03/04 01:55:31;;;;;;;25.70;16.40;;;;;;;0.40;78.44;101503.38;5120270;28;20433;-68
2022/03/04 01:57:58;;;;;;;28.50;17.90;;;;;;;0.31;78.42;101504.97;5120493;28;20440;-68
2022/03/04 02:00:25;;;;;;;38.90;17.77;;;;;;;0.35;78.80;101506.72;5120352;28;22151;-68
2022/03/04 02:02:52;;;;;;;31.40;18.03;;;;;;;0.46;78.29;101507.75;5120421;28;20433;-68
2022/03/04 02:05:18;;;;;;;31.60;18.13;;;;;;;0.40;78.69;101500.81;5120141;28;20440;-68
2022/03/04 02:07:45;;;;;;;32.33;18.03;;;;;;;0.48;78.30;101506.06;5120149;28;20436;-68
2022/03/04 02:10:12;;;;;;;33.17;18.80;;;;;;;0.32;79.01;101501.56;5120413;28;20779;-68
2022/03/04 02:12:39;;;;;;;32.00;18.50;;;;;;;0.40;79.30;101503.38;5120036;28;20436;-68
2022/03/04 02:15:07;;;;;;;32.47;18.27;;;;;;;0.34;79.24;101508.44;5120070;28;20437;-68
2022/03/04 02:17:34;;;;;;;31.73;18.20;;;;;;;0.20;79.68;101505.69;5120079;28;20436;-68
2022/03/04 02:20:03;;;;;;;34.20;18.23;;;;;;;0.27;79.78;101497.19;5120433;28;21089;-68
2022/03/04 02:22:31;;;;;;;32.33;18.03;;;;;;;0.24;80.49;101492.00;5120278;28;20481;-68
2022/03/04 02:24:58;;;;;;;31.60;18.67;;;;;;;0.31;80.20;101484.38;5120219;28;20437;-68
2022/03/04 02:27:24;;;;;;;33.20;19.07;;;;;;;0.24;80.40;101479.13;5119998;28;20425;-68
2022/03/04 02:29:51;;;;;;;31.83;17.70;;;;;;;0.29;80.62;101489.50;5120012;28;20426;-68
2022/03/04 02:32:18;;;;;;;31.70;18.40;;;;;;;0.22;80.51;101487.69;5119841;28;20453;-68
2022/03/04 02:34:46;;;;;;;39.90;20.93;;;;;;;0.21;80.88;101480.78;5120473;28;20436;-69
2022/03/04 02:37:14;;;;;;;31.73;18.13;;;;;;;0.35;80.57;101491.28;5119861;28;20452;-69
2022/03/04 02:39:40;;;;;;;33.57;18.03;;;;;;;0.26;80.99;101484.31;5118249;28;20454;-69
2022/03/04 02:42:08;;;;;;;36.40;19.03;;;;;;;0.19;81.08;101497.94;5116821;28;20865;-68
2022/03/04 02:44:34;;;;;;;34.50;18.93;;;;;;;0.14;81.29;101487.56;5116555;28;20436;-69
2022/03/04 02:47:01;;;;;;;38.13;18.60;;;;;;;0.19;81.24;101490.22;5116525;28;20482;-69
2022/03/04 02:49:27;;;;;;;35.80;18.53;;;;;;;0.03;81.84;101485.72;5116720;28;21011;-69
2022/03/04 02:51:54;;;;;;;38.53;19.50;;;;;;;0.01;82.02;101488.28;5116418;28;20454;-68
2022/03/04 02:54:21;;;;;;;30.00;17.73;;;;;;;0.00;82.74;101489.13;5116926;28;20429;-69
2022/03/04 02:56:47;;;;;;;47.00;20.80;;;;;;;-0.02;82.58;101483.06;5116913;28;20950;-69
2022/03/04 02:59:14;;;;;;;37.73;20.57;;;;;;;-0.09;83.13;101491.53;5116588;28;20428;-69
2022/03/04 03:01:41;;;;;;;32.07;18.43;;;;;;;0.03;82.51;101484.00;5116137;28;20472;-68
2022/03/04 03:04:08;;;;;;;31.13;18.47;;;;;;;-0.04;82.67;101474.47;5116447;28;20426;-68
2022/03/04 03:06:35;;;;;;;40.43;18.90;;;;;;;-0.17;83.13;101488.84;5116469;28;20811;-68
2022/03/04 03:09:02;;;;;;;44.63;19.10;;;;;;;-0.18;83.92;101491.41;5116363;28;20864;-69
2022/03/04 03:11:28;;;;;;;36.23;19.20;;;;;;;-0.24;84.11;101492.16;5115990;28;20448;-69
2022/03/04 03:13:55;;;;;;;49.40;20.10;;;;;;;-0.34;84.92;101495.47;5116021;28;20429;-69
2022/03/04 03:16:21;;;;;;;37.77;20.57;;;;;;;-0.25;84.91;101493.03;5116216;28;20438;-69
2022/03/04 03:18:48;;;;;;;40.77;17.50;;;;;;;-0.21;84.95;101492.25;5115916;28;20977;-69
2022/03/04 03:21:14;;;;;;;32.37;18.70;;;;;;;-0.22;84.51;101489.63;5115605;28;20545;-69
2022/03/04 03:23:41;;;;;;;36.73;19.23;;;;;;;-0.32;84.78;101493.75;5115843;28;20935;-69
2022/03/04 03:26:08;;;;;;;36.23;18.30;;;;;;;-0.39;85.55;101497.09;5116147;28;20413;-68
2022/03/04 03:28:35;;;;;;;41.20;20.00;;;;;;;-0.45;85.66;101495.28;5115786;28;20799;-69
2022/03/04 03:31:02;;;;;;;37.40;19.60;;;;;;;-0.58;86.36;101501.06;5115678;28;20849;-69
2022/03/04 03:33:29;;;;;;;40.67;19.30;;;;;;;-0.49;86.05;101501.22;5115636;28;20444;-69
2022/03/04 03:35:55;;;;;;;37.10;19.20;;;;;;;-0.45;86.49;101492.69;5116153;28;20432;-69
2022/03/04 03:38:23;;;;;;;39.80;19.50;;;;;;;-0.46;86.75;101497.81;5115565;28;20425;-69
2022/03/04 03:40:50;;;;;;;36.83;19.47;;;;;;;-0.43;87.01;101503.91;5115874;28;20969;-69
2022/03/04 03:43:36;;;;;;;29.23;17.93;;;;;;;-0.52;87.00;101496.00;5115780;28;20430;-69
2022/03/04 03:46:03;;;;;;;32.93;18.00;;;;;;;-0.56;87.18;101504.53;5115409;28;20483;-69
2022/03/04 03:48:29;;;;;;;39.07;20.43;;;;;;;-0.55;87.88;101506.25;5115539;28;20436;-69
2022/03/04 03:50:56;;;;;;;39.30;20.63;;;;;;;-0.45;87.68;101507.28;5114778;28;20503;-69
2022/03/04 03:53:23;;;;;;;42.57;20.43;;;;;;;-0.45;87.28;101496.97;5114904;28;20518;-69
2022/03/04 03:55:49;;;;;;;30.63;18.73;;;;;;;-0.41;87.76;101498.78;5115797;28;20406;-69
2022/03/04 03:58:16;;;;;;;38.47;19.37;;;;;;;-0.44;87.50;101507.28;5115167;28;20480;-69
2022/03/04 04:00:42;;;;;;;42.57;19.70;;;;;;;-0.36;87.38;101502.25;5115182;28;20892;-69
2022/03/04 04:03:09;;;;;;;34.67;18.43;;;;;;;-0.42;87.56;101509.91;5115045;28;20426;-69
2022/03/04 04:05:36;;;;;;;39.27;18.97;;;;;;;-0.42;87.24;101503.06;5115025;28;20426;-69
2022/03/04 04:08:02;;;;;;;37.90;19.63;;;;;;;-0.50;87.54;101509.78;5115301;28;20450;-69
2022/03/04 04:10:29;;;;;;;37.47;20.77;;;;;;;-0.53;87.78;101511.41;5115158;28;20498;-69
2022/03/04 04:12:55;;;;;;;34.03;19.83;;;;;;;-0.63;88.52;101524.13;5114846;28;20478;-69
2022/03/04 04:15:22;;;;;;;38.13;20.17;;;;;;;-0.47;88.05;101512.41;5115153;28;20409;-69
2022/03/04 04:17:48;;;;;;;38.83;20.07;;;;;;;-0.60;88.01;101518.16;5115070;28;20410;-69
2022/03/04 04:20:15;;;;;;;32.90;19.43;;;;;;;-0.51;87.96;101520.88;5114850;28;20461;-69
2022/03/04 04:22:41;;;;;;;39.13;19.00;;;;;;;-0.59;88.16;101525.91;5114706;28;20417;-69
2022/03/04 04:25:08;;;;;;;37.03;19.13;;;;;;;-0.49;88.28;101528.66;5114899;28;20482;-69
2022/03/04 04:27:35;;;;;;;31.80;18.17;;;;;;;-0.53;88.52;101525.16;5114573;28;20430;-69
2022/03/04 04:30:02;;;;;;;34.37;18.70;;;;;;;-0.60;88.69;101529.31;5114552;28;20433;-69
2022/03/04 04:32:29;;;;;;;47.00;19.80;;;;;;;-0.53;88.29;101530.28;5114356;28;20460;-69
2022/03/04 04:34:55;;;;;;;31.70;18.63;;;;;;;-0.56;88.60;101536.25;5114500;28;20830;-69
2022/03/04 04:37:22;;;;;;;34.50;19.20;;;;;;;-0.63;88.86;101531.84;5114749;28;20434;-69
2022/03/04 04:39:48;;;;;;;36.57;19.43;;;;;;;-0.68;88.81;101527.47;5114885;28;20459;-69
2022/03/04 04:42:14;;;;;;;39.70;20.13;;;;;;;-0.71;89.20;101540.28;5114755;28;20470;-69
2022/03/04 04:44:41;;;;;;;44.53;20.27;;;;;;;-0.59;88.86;101540.47;5114536;28;20458;-69
2022/03/04 04:47:08;;;;;;;34.63;19.27;;;;;;;-0.54;88.14;101538.84;5114747;28;20972;-69
2022/03/04 04:49:36;;;;;;;36.57;20.23;;;;;;;-0.61;88.50;101532.72;5114332;28;20430;-69
2022/03/04 04:52:08;;;;;;;40.07;19.93;;;;;;;-0.61;88.55;101529.31;5114048;28;20490;-69
2022/03/04 04:54:35;;;;;;;42.33;20.27;;;;;;;-0.75;88.91;101535.91;5114441;28;20413;-69
2022/03/04 04:57:02;;;;;;;30.07;18.40;;;;;;;-0.86;89.33;101540.81;5114075;28;20429;-69
2022/03/04 04:59:29;;;;;;;32.10;19.27;;;;;;;-0.81;89.54;101525.50;5114299;28;20421;-69
2022/03/04 05:01:55;;;;;;;33.73;19.37;;;;;;;-0.86;89.56;101526.31;5113953;28;20464;-69
2022/03/04 05:04:22;;;;;;;34.67;19.73;;;;;;;-0.92;90.05;101526.19;5113861;28;20852;-69
2022/03/04 05:06:48;;;;;;;41.67;20.00;;;;;;;-0.98;90.21;101528.63;5114494;28;20429;-69
2022/03/04 05:09:15;;;;;;;33.37;17.93;;;;;;;-0.98;90.64;101528.63;5113905;28;20443;-69
2022/03/04 05:11:42;;;;;;;37.77;19.13;;;;;;;-0.98;90.66;101531.22;5113681;28;20455;-69
2022/03/04 05:14:09;;;;;;;35.10;18.70;;;;;;;-1.04;90.79;101525.94;5113781;28;20441;-69
2022/03/04 05:16:36;;;;;;;35.73;19.00;;;;;;;-0.99;90.82;101526.91;5114074;28;20922;-69
2022/03/04 05:19:03;;;;;;;27.20;17.53;;;;;;;-1.04;90.73;101525.09;5113978;28;20516;-70
2022/03/04 05:21:30;;;;;;;38.63;19.63;;;;;;;-1.04;90.93;101530.22;5113494;28;20521;-69
2022/03/04 05:23:59;;;;;;;37.00;18.37;;;;;;;-1.01;90.76;101531.13;5113588;28;20487;-69
2022/03/04 05:26:37;;;;;;;31.33;18.70;;;;;;;-1.06;90.69;101540.47;5113710;28;20433;-69
2022/03/04 05:29:09;;;;;;;40.77;20.40;;;;;;;-1.08;90.66;101538.69;5114007;28;20414;-69
2022/03/04 05:31:36;;;;;;;40.37;18.67;;;;;;;-1.13;90.91;101530.91;5113800;28;20462;-69
2022/03/04 05:34:03;;;;;;;45.30;20.97;;;;;;;-1.14;91.14;101540.34;5113689;28;20501;-69
2022/03/04 05:36:29;;;;;;;36.80;19.70;;;;;;;-1.15;91.32;101548.84;5113618;28;20494;-69
2022/03/04 05:38:56;;;;;;;35.00;19.33;;;;;;;-1.24;91.26;101546.09;5113614;28;20490;-69
2022/03/04 05:41:22;;;;;;;32.83;15.80;;;;;;;-1.27;91.55;101558.03;5095588;28;20509;-68
2022/03/04 05:43:49;;;;;;;42.13;20.33;;;;;;;-1.33;91.54;101553.63;5113768;28;20482;-68
2022/03/04 05:46:16;;;;;;;38.80;18.63;;;;;;;-1.35;91.67;101549.31;5113735;28;20425;-69
2022/03/04 05:48:43;;;;;;;38.23;18.93;;;;;;;-1.26;91.72;101563.19;5113545;28;20429;-69
2022/03/04 05:51:10;;;;;;;40.77;19.77;;;;;;;-1.30;92.32;101563.09;5113707;28;20938;-68
2022/03/04 05:53:37;;;;;;;45.27;17.60;;;;;;;-1.24;92.26;101568.34;5113375;28;20935;-68
2022/03/04 05:56:05;;;;;;;36.73;19.00;;;;;;;-1.20;92.44;101577.88;5113586;28;20436;-69
2022/03/04 05:58:31;;;;;;;36.07;18.90;;;;;;;-1.30;92.52;101573.38;5113959;28;20449;-69
2022/03/04 06:00:59;;;;;;;39.20;18.50;;;;;;;-1.33;92.87;101581.03;5113499;28;20489;-69
2022/03/04 06:03:26;;;;;;;33.20;18.57;;;;;;;-1.38;93.40;101583.47;5113171;28;20787;-69
2022/03/04 06:05:53;;;;;;;42.97;18.03;;;;;;;-1.28;93.51;101582.84;5113775;28;20430;-69
2022/03/04 06:08:20;;;;;;;32.83;19.00;;;;;;;-1.27;93.34;101586.28;5095653;28;20871;-69
2022/03/04 06:10:46;;;;;;;40.40;18.37;;;;;;;-1.33;93.33;101588.72;5113301;28;20437;-69
2022/03/04 06:13:13;;;;;;;49.43;19.77;;;;;;;-1.42;93.63;101585.13;5113331;28;20425;-69
2022/03/04 06:15:39;;;;;;;34.43;19.60;;;;;;;-1.40;94.09;101583.44;5115317;28;20429;-69
2022/03/04 06:18:06;;;;;;;38.17;18.83;;;;;;;-1.48;94.26;101585.00;5117316;28;20429;-69
2022/03/04 06:20:33;;;;;;;38.87;20.27;;;;;;;-1.37;94.59;101587.78;5117021;28;20467;-68
2022/03/04 06:22:59;;;;;;;44.67;20.17;;;;;;;-1.36;94.52;101601.47;5117795;28;20474;-68
2022/03/04 06:25:26;;;;;;;37.87;19.87;;;;;;;-1.40;94.60;101593.72;5117540;28;20866;-68
2022/03/04 06:27:58;;;;;;;42.47;19.50;;;;;;;-1.42;94.76;101599.69;5117436;28;20769;-69
2022/03/04 06:30:27;;;;;;;33.60;19.00;;;;;;;-1.44;94.99;101604.75;5117041;28;20428;-68
2022/03/04 06:33:30;;;;;;;41.07;19.87;;;;;;;-1.31;94.89;101594.75;5116759;28;20836;-69
2022/03/04 06:35:42;;;;;;;28.37;17.90;;;;;;;-1.25;95.03;101597.47;5116625;28;20429;-69
2022/03/04 06:38:10;;;;;;;39.97;18.60;;;;;;;-1.31;95.06;101602.47;5116896;28;20436;-69
2022/03/04 06:40:37;;;;;;;36.17;19.60;;;;;;;-1.21;95.17;101610.41;5116608;28;20977;-67
2022/03/04 06:43:07;;;;;;;38.40;19.77;;;;;;;-1.20;95.40;101616.41;5116809;28;20764;-68
2022/03/04 06:45:34;;;;;;;41.57;20.20;;;;;;;-1.18;95.04;101615.59;5116853;28;20437;-68
2022/03/04 06:48:01;;;;;;;40.77;20.67;;;;;;;-1.08;95.22;101615.78;5116708;28;20461;-68
2022/03/04 06:50:28;;;;;;;39.53;21.27;;;;;;;-1.07;95.08;101623.53;5116320;28;20502;-68
2022/03/04 06:52:55;;;;;;;46.50;21.13;;;;;;;-1.11;95.33;101617.47;5098020;28;20444;-68
2022/03/04 06:55:22;;;;;;;37.70;20.10;;;;;;;-1.05;95.21;101608.16;5116931;28;20911;-68
2022/03/04 06:57:51;;;;;;;39.07;20.43;;;;;;;-0.95;95.26;101612.63;5116523;28;20768;-68
2022/03/04 07:00:18;;;;;;;53.20;19.47;;;;;;;-0.87;94.70;101622.22;5116448;28;20486;-68
2022/03/04 07:02:45;;;;;;;45.47;20.93;;;;;;;-0.83;94.83;101615.47;5116683;28;20469;-68
2022/03/04 07:05:12;;;;;;;42.77;21.20;;;;;;;-0.79;94.78;101624.94;5116996;28;20772;-68
2022/03/04 07:07:39;;;;;;;43.43;20.33;;;;;;;-0.69;94.59;101624.31;5116283;28;20430;-68
2022/03/04 07:10:06;;;;;;;41.90;20.93;;;;;;;-0.60;94.13;101631.31;5116650;28;20429;-68
2022/03/04 07:12:33;;;;;;;48.33;22.27;;;;;;;-0.62;93.85;101628.72;5116612;28;20430;-68
2022/03/04 07:14:59;;;;;;;41.77;20.50;;;;;;;-0.50;93.59;101637.50;5115987;28;20772;-68
2022/03/04 07:17:26;;;;;;;51.73;21.87;;;;;;;-0.49;93.73;101634.97;5116422;28;20450;-68
2022/03/04 07:19:53;;;;;;;49.13;21.33;;;;;;;-0.43;93.51;101645.38;5116038;28;20432;-68
2022/03/04 07:22:19;;;;;;;40.77;21.17;;;;;;;-0.39;93.45;101636.88;5115740;28;20468;-68
2022/03/04 07:24:46;;;;;;;45.10;22.50;;;;;;;-0.25;93.28;101643.97;5115794;28;20430;-68
2022/03/04 07:27:12;;;;;;;38.73;21.73;;;;;;;-0.16;92.84;101646.69;5115461;28;20437;-68
2022/03/04 07:29:39;;;;;;;46.73;21.90;;;;;;;-0.04;91.90;101649.50;5115903;28;20478;-68
2022/03/04 07:32:05;;;;;;;40.70;21.87;;;;;;;-0.18;91.75;101656.09;5115846;28;20458;-68
2022/03/04 07:34:32;;;;;;;42.97;21.03;;;;;;;-0.08;91.62;101652.84;5115902;28;20425;-68
2022/03/04 07:36:58;;;;;;;43.97;22.37;;;;;;;-0.18;91.58;101645.81;5115517;28;20429;-68
2022/03/04 07:39:25;;;;;;;43.80;22.13;;;;;;;-0.07;91.81;101646.88;5115504;28;20840;-68
2022/03/04 07:41:51;;;;;;;38.90;21.47;;;;;;;0.05;91.11;101646.19;5115287;28;20463;-68
2022/03/04 07:44:26;;;;;;;39.43;21.53;;;;;;;0.13;91.01;101644.59;5115962;28;20413;-68
2022/03/04 07:46:52;;;;;;;43.37;21.07;;;;;;;0.28;90.86;101645.72;5116108;28;20437;-68
2022/03/04 07:49:19;;;;;;;41.00;19.90;;;;;;;0.30;90.36;101648.34;5115260;28;20525;-68
2022/03/04 07:51:47;;;;;;;41.57;21.80;;;;;;;0.26;90.13;101649.97;5115173;28;20437;-68
2022/03/04 07:54:14;;;;;;;45.97;22.27;;;;;;;0.45;90.00;101647.69;5115137;28;20475;-68
2022/03/04 07:56:40;;;;;;;41.97;22.70;;;;;;;0.46;89.54;101649.44;5115170;28;20794;-68
2022/03/04 07:59:07;;;;;;;47.07;21.57;;;;;;;0.47;90.10;101656.31;5115392;28;20420;-69
2022/03/04 08:01:34;;;;;;;45.30;22.30;;;;;;;0.53;89.61;101654.69;5114935;28;20458;-69
2022/03/04 08:04:00;;;;;;;47.33;21.80;;;;;;;0.74;88.99;101659.28;5115019;28;20464;-69
2022/03/04 08:06:27;;;;;;;56.30;23.03;;;;;;;0.77;88.72;101653.31;5114901;28;20430;-68
2022/03/04 08:08:54;;;;;;;37.77;21.23;;;;;;;0.80;88.08;101656.81;5114900;28;20434;-69
2022/03/04 08:11:20;;;;;;;48.30;21.90;;;;;;;0.79;88.15;101651.63;5114747;28;20442;-68
2022/03/04 08:13:47;;;;;;;41.63;21.63;;;;;;;0.90;87.88;101655.22;5114765;28;20497;-68
2022/03/04 08:16:13;;;;;;;39.10;22.07;;;;;;;0.88;87.39;101648.31;5114742;28;20486;-68
2022/03/04 08:18:40;;;;;;;39.27;21.67;;;;;;;1.00;87.53;101646.78;5115246;28;20848;-68
2022/03/04 08:21:08;;;;;;;43.27;23.23;;;;;;;1.08;87.35;101642.56;5114445;28;20971;-68
2022/03/04 08:23:34;;;;;;;38.77;21.73;;;;;;;1.19;86.43;101645.25;5114609;28;20436;-69
2022/03/04 08:26:03;;;;;;;58.90;22.63;;;;;;;1.26;86.98;101657.38;5114858;28;20463;-68
2022/03/04 08:28:33;;;;;;;49.20;22.00;;;;;;;1.59;84.98;101664.66;5115062;28;20191;-69
2022/03/04 08:31:01;;;;;;;49.23;22.40;;;;;;;1.61;84.96;101660.38;5114566;28;20854;-69
2022/03/04 08:33:27;;;;;;;57.13;22.53;;;;;;;1.60;84.23;101668.97;5114667;28;20903;-68
2022/03/04 08:35:54;;;;;;;55.87;21.43;;;;;;;1.71;84.18;101666.47;5114408;28;20430;-68
2022/03/04 08:38:21;;;;;;;39.07;22.03;;;;;;;1.80;84.06;101665.72;5114327;28;20768;-68
2022/03/04 08:40:48;;;;;;;39.50;22.27;;;;;;;1.74;83.66;101668.25;5114476;28;20561;-68
2022/03/04 08:43:14;;;;;;;37.00;21.70;;;;;;;1.91;83.96;101667.53;5114439;28;20563;-69
2022/03/04 08:45:41;;;;;;;39.33;21.27;;;;;;;2.09;83.59;101672.03;5114521;28;20464;-69
2022/03/04 08:48:10;;;;;;;42.77;21.23;;;;;;;2.20;82.49;101664.34;5114675;28;20935;-69
2022/03/04 08:50:36;;;;;;;48.60;23.53;;;;;;;2.30;81.66;101666.19;5114566;28;20211;-69
2022/03/04 08:53:07;;;;;;;42.53;20.93;;;;;;;2.40;81.49;101660.22;5114277;28;20174;-69
2022/03/04 08:55:34;;;;;;;41.77;20.80;;;;;;;2.59;80.45;101652.59;5114661;28;20953;-69
2022/03/04 08:58:00;;;;;;;39.00;21.23;;;;;;;2.68;79.84;101657.81;5114128;28;20185;-70
2022/03/04 09:00:28;;;;;;;39.50;20.97;;;;;;;2.64;79.39;101658.63;5114534;28;20209;-69
2022/03/04 09:02:55;;;;;;;43.37;21.17;;;;;;;2.87;79.29;101657.09;5114062;28;20546;-69
2022/03/04 09:05:22;;;;;;;37.87;21.57;;;;;;;3.00;78.83;101658.88;5114126;28;20246;-69
2022/03/04 09:07:49;;;;;;;46.10;20.67;;;;;;;3.12;77.65;101659.78;5113916;28;20185;-69
2022/03/04 09:10:15;;;;;;;33.37;20.70;;;;;;;3.20;77.53;101666.72;5114065;28;20573;-69
2022/03/04 09:12:41;;;;;;;39.77;21.30;;;;;;;3.45;77.34;101657.31;5114145;28;20185;-69
2022/03/04 09:15:08;;;;;;;53.00;21.73;;;;;;;3.63;76.30;101658.22;5113999;28;20552;-69
2022/03/04 09:17:35;;;;;;;38.83;21.80;;;;;;;3.93;75.43;101658.31;5114265;28;20191;-70
2022/03/04 09:20:03;;;;;;;38.43;21.00;;;;;;;4.12;74.14;101648.78;5113859;28;20200;-69
2022/03/04 09:22:29;;;;;;;50.00;21.37;;;;;;;4.20;72.89;101653.97;5113872;28;20733;-69
2022/03/04 09:24:55;;;;;;;33.67;20.30;;;;;;;4.25;72.09;101644.47;5114225;28;20200;-69
2022/03/04 09:27:23;;;;;;;42.00;21.03;;;;;;;4.26;72.03;101644.47;5114250;28;20546;-69
2022/03/04 09:29:49;;;;;;;41.90;21.37;;;;;;;4.46;72.46;101644.47;5113695;28;20184;-69
2022/03/04 09:32:16;;;;;;;35.70;19.63;;;;;;;4.65;70.54;101643.56;5113828;28;20242;-69
2022/03/04 09:34:43;;;;;;;40.30;20.57;;;;;;;4.76;69.79;101637.47;5113579;28;20526;-69
2022/03/04 09:37:09;;;;;;;30.53;18.70;;;;;;;4.91;69.50;101642.63;5113863;28;20585;-69
2022/03/04 09:39:36;;;;;;;32.43;19.40;;;;;;;4.97;68.08;101645.19;5113911;28;20170;-69
2022/03/04 09:42:03;;;;;;;27.30;18.43;;;;;;;5.06;67.67;101652.94;5113425;28;20215;-69
2022/03/04 09:44:29;;;;;;;30.03;19.27;;;;;;;5.27;67.46;101643.34;5113974;28;20246;-69
2022/03/04 09:46:58;;;;;;;34.60;19.50;;;;;;;5.32;65.30;101641.59;5113667;28;20276;-69
2022/03/04 09:49:31;;;;;;;27.37;18.57;;;;;;;5.51;66.74;101643.25;5115108;28;20200;-69
2022/03/04 09:51:57;;;;;;;33.50;18.50;;;;;;;5.82;64.75;101637.84;5117601;28;20209;-69
2022/03/04 09:54:30;;;;;;;32.73;19.90;;;;;;;5.77;63.35;101640.47;5118229;28;20170;-69
2022/03/04 09:56:58;;;;;;;26.80;17.47;;;;;;;5.99;62.68;101638.63;5117550;28;20222;-69
2022/03/04 09:59:25;;;;;;;29.73;18.50;;;;;;;6.33;64.70;101636.59;5117555;28;20185;-69
2022/03/04 10:01:52;;;;;;;22.90;17.83;;;;;;;6.41;61.59;101632.19;5117519;28;20287;-70
2022/03/04 10:04:25;;;;;;;24.53;17.83;;;;;;;6.41;60.85;101634.78;5117960;28;20218;-69
2022/03/04 10:06:51;;;;;;;29.67;17.13;;;;;;;6.53;60.89;101636.44;5117398;28;20178;-69
2022/03/04 10:09:33;;;;;;;25.83;17.90;;;;;;;6.51;59.98;101640.78;5117300;28;20193;-69
2022/03/04 10:12:04;;;;;;;29.63;17.93;;;;;;;6.68;60.26;101632.81;5117203;28;20205;-69
2022/03/04 10:14:33;;;;;;;36.20;18.33;;;;;;;7.07;58.58;101637.56;5117719;28;20187;-69
2022/03/04 10:16:59;;;;;;;39.73;19.07;;;;;;;7.23;58.80;101629.56;5117076;28;20191;-69
2022/03/04 10:19:27;;;;;;;31.93;19.10;;;;;;;7.34;56.25;101631.13;5117180;28;20606;-70
2022/03/04 10:21:56;;;;;;;28.07;18.50;;;;;;;7.58;56.50;101627.34;5116823;28;20223;-70
2022/03/04 10:24:30;;;;;;;35.93;19.60;;;;;;;7.54;56.08;101630.00;5117260;28;20653;-70
2022/03/04 10:27:02;;;;;;;32.30;18.60;;;;;;;7.41;54.97;101627.56;5116834;28;20188;-70
2022/03/04 10:29:39;;;;;;;27.63;18.20;;;;;;;7.32;56.22;101626.84;5117778;28;20516;-70
2022/03/04 10:32:13;;;;;;;28.23;18.30;;;;;;;7.61;54.98;101618.63;5116919;28;20210;-69
2022/03/04 10:34:55;;;;;;;31.27;19.37;;;;;;;7.62;54.97;101620.34;5117194;28;20174;-69
2022/03/04 10:37:48;;;;;;;35.27;20.63;;;;;;;8.01;55.34;101629.31;5116999;28;20184;-69
2022/03/04 10:40:17;;;;;;;30.53;19.63;;;;;;;7.98;54.79;101624.97;5103355;28;20559;-70
2022/03/04 10:42:45;;;;;;;32.90;19.10;;;;;;;7.91;52.39;101620.75;5117208;28;20208;-70
2022/03/04 10:45:14;;;;;;;27.23;18.53;;;;;;;8.05;53.87;101620.53;5099265;28;20195;-70
2022/03/04 10:47:44;;;;;;;27.67;19.43;;;;;;;8.40;54.12;101617.34;5116474;28;20189;-70
2022/03/04 10:50:13;;;;;;;33.20;21.33;;;;;;;8.44;51.58;101620.78;5116416;28;20189;-70
2022/03/04 10:53:12;;;;;;;34.73;20.07;;;;;;;8.59;51.26;101630.94;5116416;28;20181;-70
2022/03/04 10:55:39;;;;;;;31.83;19.27;;;;;;;8.54;51.50;101619.72;5117041;28;20196;-70
2022/03/04 10:58:14;;;;;;;30.97;19.13;;;;;;;8.59;52.29;101623.13;5098285;28;20272;-70
2022/03/04 11:00:44;;;;;;;31.53;18.90;;;;;;;8.79;52.70;101618.38;5115567;28;20258;-70
2022/03/04 11:03:18;;;;;;;28.70;19.97;;;;;;;9.08;51.61;101625.63;5116550;28;20201;-70
2022/03/04 11:05:45;;;;;;;28.67;18.60;;;;;;;9.15;50.37;101623.75;5116460;28;20187;-70
2022/03/04 11:08:11;;;;;;;27.83;19.37;;;;;;;9.32;49.77;101626.00;5116170;28;20724;-70
2022/03/04 11:10:38;;;;;;;27.07;19.40;;;;;;;9.21;49.13;101628.81;5116342;28;20209;-70
2022/03/04 11:13:06;;;;;;;36.63;18.53;;;;;;;9.26;50.29;101623.50;5116083;28;20183;-70
2022/03/04 11:15:34;;;;;;;27.20;18.87;;;;;;;9.18;48.77;101628.91;5116065;28;20216;-70